createdAt,value
2022-12-20T00:01:36.583Z,26.60
2022-12-20T00:04:08.084Z,27.02
2022-12-20T00:06:36.242Z,26.58
2022-12-20T00:09:06.566Z,24.75
2022-12-20T00:11:34.153Z,27.23
2022-12-20T00:14:01.513Z,26.15
2022-12-20T00:16:29.840Z,25.65
2022-12-20T00:18:59.249Z,26.45
2022-12-20T00:21:27.585Z,26.40
2022-12-20T00:23:55.588Z,25.85
2022-12-20T00:26:26.350Z,25.00
2022-12-20T00:28:53.945Z,27.60
2022-12-20T00:31:22.887Z,25.98
2022-12-20T00:33:52.097Z,24.60
2022-12-20T00:36:19.875Z,26.62
2022-12-20T00:38:49.380Z,23.98
2022-12-20T00:41:21.372Z,25.50
2022-12-20T00:43:49.584Z,23.98
2022-12-20T00:46:18.186Z,26.23
2022-12-20T00:48:45.641Z,26.08
2022-12-20T00:51:16.780Z,24.45
2022-12-20T00:53:44.621Z,24.55
2022-12-20T00:56:12.343Z,27.35
2022-12-20T00:58:41.304Z,28.08
2022-12-20T01:01:21.782Z,26.73
2022-12-20T01:03:51.029Z,29.20
2022-12-20T01:06:19.212Z,28.27
2022-12-20T01:08:46.841Z,28.12
2022-12-20T01:11:16.816Z,29.48
2022-12-20T01:13:46.594Z,26.62
2022-12-20T01:16:28.968Z,26.17
2022-12-20T01:18:56.601Z,26.67
2022-12-20T01:21:26.180Z,25.50
2022-12-20T01:23:54.265Z,24.02
2022-12-20T01:26:23.315Z,26.12
2022-12-20T01:28:54.944Z,24.48
2022-12-20T01:31:22.540Z,23.85
2022-12-20T01:33:50.538Z,23.45
2022-12-20T01:36:21.349Z,24.95
2022-12-20T01:38:48.715Z,23.23
2022-12-20T01:41:18.674Z,23.55
2022-12-20T01:43:56.963Z,23.30
2022-12-20T01:46:26.910Z,23.73
2022-12-20T01:49:13.463Z,21.35
2022-12-20T01:51:43.563Z,21.70
2022-12-20T01:54:16.675Z,21.62
2022-12-20T01:56:47.388Z,23.08
2022-12-20T01:59:15.124Z,23.00
2022-12-20T02:01:43.230Z,22.52
2022-12-20T02:04:12.178Z,21.87
2022-12-20T02:06:39.694Z,23.85
2022-12-20T02:09:08.459Z,22.33
2022-12-20T02:11:35.941Z,21.30
2022-12-20T02:14:16.838Z,21.92
2022-12-20T02:16:58.429Z,21.65
2022-12-20T02:19:40.944Z,22.77
2022-12-20T02:22:16.662Z,22.23
2022-12-20T02:24:53.132Z,23.02
2022-12-20T02:27:27.610Z,21.50
2022-12-20T02:30:06.658Z,22.58
2022-12-20T02:32:43.231Z,22.02
2022-12-20T02:35:14.946Z,22.90
2022-12-20T02:37:54.796Z,22.90
2022-12-20T02:40:25.200Z,22.40
2022-12-20T02:42:56.330Z,23.10
2022-12-20T02:45:28.016Z,23.48
2022-12-20T02:48:01.268Z,23.08
2022-12-20T02:50:35.872Z,24.65
2022-12-20T02:53:05.236Z,23.45
2022-12-20T02:56:00.387Z,23.05
2022-12-20T02:58:42.984Z,21.95
2022-12-20T03:01:23.811Z,21.92
2022-12-20T03:03:51.717Z,22.67
2022-12-20T03:06:19.575Z,24.12
2022-12-20T03:08:47.338Z,23.08
2022-12-20T03:11:15.045Z,22.77
2022-12-20T03:13:42.699Z,22.70
2022-12-20T03:16:10.944Z,23.17
2022-12-20T03:18:39.093Z,22.05
2022-12-20T03:21:06.449Z,23.20
2022-12-20T03:23:34.184Z,21.08
2022-12-20T03:26:01.798Z,22.13
2022-12-20T03:28:30.445Z,21.40
2022-12-20T03:30:58.005Z,20.55
2022-12-20T03:33:25.810Z,22.60
2022-12-20T03:35:53.367Z,21.52
2022-12-20T03:38:21.464Z,22.60
2022-12-20T03:40:49.048Z,21.02
2022-12-20T03:43:17.043Z,21.65
2022-12-20T03:45:44.643Z,21.73
2022-12-20T03:48:12.294Z,21.45
2022-12-20T03:50:39.689Z,22.20
2022-12-20T03:53:07.688Z,20.73
2022-12-20T03:55:35.328Z,21.05
2022-12-20T03:58:02.793Z,21.12
2022-12-20T04:00:30.714Z,21.15
2022-12-20T04:02:59.050Z,22.77
2022-12-20T04:05:27.030Z,20.92
2022-12-20T04:07:54.434Z,21.62
2022-12-20T04:10:22.027Z,22.95
2022-12-20T04:12:49.416Z,20.85
2022-12-20T04:15:17.116Z,22.10
2022-12-20T04:17:45.471Z,19.65
2022-12-20T04:20:20.400Z,20.95
2022-12-20T04:22:50.038Z,19.95
2022-12-20T04:25:19.825Z,20.88
2022-12-20T04:27:47.790Z,19.48
2022-12-20T04:30:15.509Z,20.98
2022-12-20T04:32:43.203Z,19.62
2022-12-20T04:35:11.301Z,22.75
2022-12-20T04:37:39.525Z,22.77
2022-12-20T04:40:07.728Z,20.70
2022-12-20T04:42:36.374Z,19.60
2022-12-20T04:45:04.389Z,19.75
2022-12-20T04:47:32.099Z,18.35
2022-12-20T04:49:59.562Z,19.45
2022-12-20T04:52:48.018Z,20.30
2022-12-20T04:55:16.140Z,18.35
2022-12-20T04:57:43.886Z,17.80
2022-12-20T05:00:11.987Z,19.27
2022-12-20T05:02:39.925Z,17.35
2022-12-20T05:05:08.599Z,19.67
2022-12-20T05:07:36.755Z,18.83
2022-12-20T05:10:04.649Z,20.35
2022-12-20T05:12:32.419Z,19.58
2022-12-20T05:15:00.568Z,20.12
2022-12-20T05:17:27.913Z,18.42
2022-12-20T05:19:55.515Z,19.23
2022-12-20T05:22:41.466Z,19.80
2022-12-20T05:25:31.751Z,19.20
2022-12-20T05:27:59.848Z,20.70
2022-12-20T05:30:27.769Z,19.20
2022-12-20T05:32:55.552Z,18.83
2022-12-20T05:35:23.007Z,18.92
2022-12-20T05:37:52.821Z,19.10
2022-12-20T05:40:20.732Z,19.62
2022-12-20T05:42:48.104Z,19.23
2022-12-20T05:45:15.933Z,19.30
2022-12-20T05:47:44.938Z,19.15
2022-12-20T05:50:18.535Z,20.40
2022-12-20T05:53:07.454Z,19.35
2022-12-20T05:55:40.528Z,20.58
2022-12-20T05:58:08.388Z,19.20
2022-12-20T06:00:37.373Z,19.05
2022-12-20T06:03:05.949Z,19.80
2022-12-20T06:05:38.813Z,20.27
2022-12-20T06:08:07.255Z,20.12
2022-12-20T06:10:35.134Z,20.98
2022-12-20T06:13:03.847Z,20.08
2022-12-20T06:15:32.100Z,20.88
2022-12-20T06:18:00.591Z,20.50
2022-12-20T06:20:28.628Z,21.40
2022-12-20T06:22:58.126Z,19.67
2022-12-20T06:25:28.430Z,19.73
2022-12-20T06:27:56.477Z,19.80
2022-12-20T06:30:30.238Z,19.45
2022-12-20T06:33:04.245Z,19.15
2022-12-20T06:35:32.231Z,18.10
2022-12-20T06:37:59.694Z,20.00
2022-12-20T06:40:27.847Z,19.52
2022-12-20T06:42:56.558Z,19.98
2022-12-20T06:45:24.131Z,20.70
2022-12-20T06:47:52.765Z,19.48
2022-12-20T06:50:20.596Z,18.67
2022-12-20T06:52:47.940Z,20.05
2022-12-20T06:55:15.681Z,19.70
2022-12-20T06:57:43.120Z,19.12
2022-12-20T07:00:12.794Z,17.83
2022-12-20T07:02:40.649Z,17.98
2022-12-20T07:05:08.253Z,18.95
2022-12-20T07:07:42.176Z,16.10
2022-12-20T07:10:12.391Z,16.50
2022-12-20T07:12:45.474Z,18.02
2022-12-20T07:15:15.756Z,16.83
2022-12-20T07:17:43.212Z,17.20
2022-12-20T07:20:13.890Z,17.12
2022-12-20T07:22:42.264Z,18.37
2022-12-20T07:25:11.335Z,18.85
2022-12-20T07:27:38.734Z,17.42
2022-12-20T07:30:06.863Z,17.08
2022-12-20T07:32:34.285Z,19.15
2022-12-20T07:35:01.716Z,18.17
2022-12-20T07:37:29.951Z,16.62
2022-12-20T07:39:57.325Z,16.48
2022-12-20T07:42:28.990Z,17.92
2022-12-20T07:45:03.661Z,17.25
2022-12-20T07:47:31.285Z,16.90
2022-12-20T07:49:58.685Z,16.70
2022-12-20T07:52:29.220Z,16.00
2022-12-20T07:55:01.981Z,16.48
2022-12-20T07:57:38.114Z,16.48
2022-12-20T08:00:06.279Z,16.33
2022-12-20T08:02:44.154Z,15.98
2022-12-20T08:05:12.552Z,15.98
2022-12-20T08:07:41.747Z,15.27
2022-12-20T08:10:11.263Z,15.13
2022-12-20T08:12:39.256Z,14.77
2022-12-20T08:15:07.525Z,15.45
2022-12-20T08:17:35.030Z,16.27
2022-12-20T08:20:03.490Z,17.85
2022-12-20T08:22:30.855Z,15.15
2022-12-20T08:24:58.236Z,16.87
2022-12-20T08:27:25.904Z,16.50
2022-12-20T08:29:53.293Z,16.80
2022-12-20T08:32:20.635Z,16.90
2022-12-20T08:34:48.418Z,15.85
2022-12-20T08:37:19.610Z,15.50
2022-12-20T08:39:46.982Z,15.32
2022-12-20T08:42:14.707Z,15.50
2022-12-20T08:44:42.084Z,15.30
2022-12-20T08:47:10.331Z,16.37
2022-12-20T08:49:42.419Z,16.23
2022-12-20T08:52:13.095Z,15.45
2022-12-20T08:54:40.766Z,16.45
2022-12-20T08:57:08.468Z,15.23
2022-12-20T08:59:35.866Z,16.12
2022-12-20T09:02:03.620Z,15.70
2022-12-20T09:04:31.218Z,15.50
2022-12-20T09:06:58.557Z,15.93
2022-12-20T09:09:26.176Z,15.88
2022-12-20T09:11:53.537Z,14.63
2022-12-20T09:14:20.878Z,15.43
2022-12-20T09:16:49.159Z,14.73
2022-12-20T09:19:16.507Z,14.57
2022-12-20T09:21:44.281Z,15.52
2022-12-20T09:24:11.956Z,14.55
2022-12-20T09:26:40.806Z,13.82
2022-12-20T09:29:08.262Z,22.25
2022-12-20T09:31:37.072Z,16.48
2022-12-20T09:34:04.529Z,14.38
2022-12-20T09:36:32.095Z,13.45
2022-12-20T09:38:59.841Z,13.18
2022-12-20T09:41:38.584Z,14.45
2022-12-20T09:44:33.841Z,13.70
2022-12-20T09:47:10.475Z,14.32
2022-12-20T09:49:42.070Z,13.32
2022-12-20T09:52:46.390Z,13.27
2022-12-20T09:55:32.763Z,14.18
2022-12-20T09:58:27.807Z,14.40
2022-12-20T10:00:55.768Z,14.30
2022-12-20T10:03:30.083Z,13.52
2022-12-20T10:06:04.649Z,14.38
2022-12-20T10:08:50.644Z,14.30
2022-12-20T10:11:36.627Z,13.43
2022-12-20T10:14:45.226Z,13.25
2022-12-20T10:17:36.156Z,14.32
2022-12-20T10:20:19.301Z,14.48
2022-12-20T10:22:53.323Z,13.00
2022-12-20T10:25:30.297Z,14.07
2022-12-20T10:27:58.581Z,14.27
2022-12-20T10:30:27.433Z,13.23
2022-12-20T10:32:56.931Z,13.55
2022-12-20T10:35:46.369Z,13.93
2022-12-20T10:38:17.542Z,12.98
2022-12-20T10:43:51.777Z,14.15
2022-12-20T10:46:19.474Z,14.15
2022-12-20T10:48:49.050Z,13.85
2022-12-20T10:51:20.168Z,13.43
2022-12-20T10:53:59.746Z,14.13
2022-12-20T10:56:32.592Z,13.55
2022-12-20T10:59:30.620Z,13.70
2022-12-20T11:01:58.391Z,13.38
2022-12-20T11:04:28.899Z,13.55
2022-12-20T11:06:57.197Z,13.35
2022-12-20T11:09:37.688Z,13.65
2022-12-20T11:12:16.553Z,13.85
2022-12-20T11:14:45.988Z,14.43
2022-12-20T11:17:29.786Z,14.10
2022-12-20T11:20:26.546Z,13.95
2022-12-20T11:23:19.173Z,13.85
2022-12-20T11:28:39.163Z,12.45
2022-12-20T11:31:24.811Z,14.23
2022-12-20T11:33:55.246Z,13.00
2022-12-20T11:36:50.810Z,13.40
2022-12-20T11:39:39.234Z,14.20
2022-12-20T11:42:16.842Z,14.00
2022-12-20T11:45:03.295Z,13.30
2022-12-20T11:47:48.704Z,14.23
2022-12-20T11:50:36.856Z,13.95
2022-12-20T11:53:31.949Z,10.75
2022-12-20T11:56:02.803Z,13.85
2022-12-20T11:58:52.780Z,14.07
2022-12-20T12:01:25.555Z,13.73
2022-12-20T12:04:13.588Z,15.32
2022-12-20T12:06:46.385Z,13.57
2022-12-20T12:09:17.136Z,13.88
2022-12-20T12:12:08.742Z,14.27
2022-12-20T12:14:52.361Z,14.23
2022-12-20T12:17:44.359Z,14.60
2022-12-20T12:20:28.424Z,13.80
2022-12-20T12:23:02.197Z,13.48
2022-12-20T12:25:29.904Z,13.85
2022-12-20T12:27:57.298Z,14.43
2022-12-20T12:30:24.734Z,13.25
2022-12-20T12:32:56.938Z,14.07
2022-12-20T12:35:59.881Z,14.07
2022-12-20T12:38:55.650Z,14.30
2022-12-20T12:42:04.859Z,15.70
2022-12-20T12:44:38.941Z,15.82
2022-12-20T12:47:12.758Z,14.87
2022-12-20T12:49:40.893Z,14.93
2022-12-20T12:52:40.287Z,14.43
2022-12-20T12:55:35.778Z,15.38
2022-12-20T12:58:24.714Z,14.45
2022-12-20T13:00:52.384Z,15.75
2022-12-20T13:03:41.560Z,16.25
2022-12-20T13:06:28.373Z,15.80
2022-12-20T13:08:55.763Z,14.23
2022-12-20T13:11:34.319Z,14.25
2022-12-20T13:14:27.419Z,13.40
2022-12-20T13:17:25.561Z,14.55
2022-12-20T13:19:55.384Z,14.27
2022-12-20T13:22:26.838Z,15.52
2022-12-20T13:24:58.044Z,14.60
2022-12-20T13:27:31.028Z,15.15
2022-12-20T13:30:00.186Z,15.05
2022-12-20T13:32:46.622Z,14.05
2022-12-20T13:35:25.978Z,13.62
2022-12-20T13:38:05.726Z,14.45
2022-12-20T13:40:43.921Z,14.05
2022-12-20T13:43:21.781Z,14.50
2022-12-20T13:46:04.542Z,13.32
2022-12-20T13:48:38.314Z,14.20
2022-12-20T13:51:08.101Z,13.68
2022-12-20T13:53:36.090Z,15.63
2022-12-20T13:56:42.366Z,14.35
2022-12-20T13:59:27.839Z,14.73
2022-12-20T14:01:59.092Z,13.40
2022-12-20T14:04:28.603Z,14.02
2022-12-20T14:06:58.643Z,14.80
2022-12-20T14:09:28.620Z,15.27
2022-12-20T14:12:21.179Z,14.65
2022-12-20T14:14:53.181Z,14.85
2022-12-20T14:17:25.897Z,15.32
2022-12-20T14:20:07.176Z,14.63
2022-12-20T14:22:36.204Z,15.65
2022-12-20T14:25:05.645Z,16.02
2022-12-20T14:27:36.010Z,14.93
2022-12-20T14:30:05.769Z,17.33
2022-12-20T14:32:33.158Z,16.35
2022-12-20T14:35:00.619Z,16.27
2022-12-20T14:37:31.803Z,16.35
2022-12-20T14:40:04.242Z,15.02
2022-12-20T14:42:37.013Z,14.70
2022-12-20T14:47:55.370Z,14.18
2022-12-20T14:50:34.525Z,15.90
2022-12-20T14:53:02.930Z,15.20
2022-12-20T14:55:32.530Z,16.75
2022-12-20T14:57:59.979Z,15.50
2022-12-20T15:00:33.409Z,15.68
2022-12-20T15:03:15.655Z,17.20
2022-12-20T15:08:17.269Z,16.70
2022-12-20T15:11:10.787Z,16.33
2022-12-20T15:13:43.192Z,17.05
2022-12-20T15:16:25.830Z,17.33
2022-12-20T15:18:56.032Z,18.30
2022-12-20T15:21:31.248Z,18.17
2022-12-20T15:24:00.971Z,18.48
2022-12-20T15:26:29.519Z,18.70
2022-12-20T15:28:57.641Z,19.05
2022-12-20T15:31:33.294Z,18.95
2022-12-20T15:34:04.851Z,19.05
2022-12-20T15:36:33.948Z,18.67
2022-12-20T15:39:17.147Z,19.83
2022-12-20T15:41:48.837Z,19.42
2022-12-20T15:44:19.382Z,17.80
2022-12-20T15:46:47.194Z,27.98
2022-12-20T15:49:28.141Z,28.33
2022-12-20T15:51:56.161Z,20.40
2022-12-20T15:54:27.565Z,19.27
2022-12-20T15:57:00.034Z,22.10
2022-12-20T16:02:29.438Z,20.60
2022-12-20T16:04:58.700Z,20.00
2022-12-20T16:07:27.296Z,21.05
2022-12-20T16:09:54.738Z,19.77
2022-12-20T16:12:32.725Z,20.52
2022-12-20T16:15:00.161Z,19.67
2022-12-20T16:17:27.878Z,21.42
2022-12-20T16:19:55.565Z,20.40
2022-12-20T16:22:24.017Z,21.17
2022-12-20T16:24:52.135Z,21.23
2022-12-20T16:27:20.399Z,21.05
2022-12-20T16:29:47.927Z,21.37
2022-12-20T16:32:17.632Z,20.10
2022-12-20T16:34:45.682Z,21.40
2022-12-20T16:37:13.340Z,21.58
2022-12-20T16:39:41.720Z,25.62
2022-12-20T16:42:14.869Z,24.98
2022-12-20T16:44:45.076Z,26.48
2022-12-20T16:47:13.991Z,22.70
2022-12-20T16:49:51.210Z,23.42
2022-12-20T16:52:22.182Z,22.98
2022-12-20T16:54:50.599Z,24.98
2022-12-20T16:57:18.354Z,26.23
2022-12-20T16:59:46.190Z,24.87
2022-12-20T17:02:26.626Z,22.65
2022-12-20T17:04:54.991Z,22.08
2022-12-20T17:07:22.601Z,21.58
2022-12-20T17:12:35.655Z,22.20
2022-12-20T17:15:04.799Z,22.60
2022-12-20T17:17:32.163Z,26.05
2022-12-20T17:20:00.062Z,27.35
2022-12-20T17:22:27.500Z,24.50
2022-12-20T17:24:54.932Z,22.30
2022-12-20T17:27:22.682Z,24.08
2022-12-20T17:29:50.749Z,22.98
2022-12-20T17:32:21.137Z,23.67
2022-12-20T17:34:49.042Z,23.62
2022-12-20T17:37:17.518Z,23.33
2022-12-20T17:39:45.031Z,23.83
2022-12-20T17:42:13.745Z,23.85
2022-12-20T17:44:41.212Z,22.55
2022-12-20T17:47:08.762Z,23.15
2022-12-20T17:49:36.624Z,23.45
2022-12-20T17:52:04.491Z,23.48
2022-12-20T17:54:39.115Z,23.65
2022-12-20T17:57:13.469Z,22.37
2022-12-20T17:59:41.399Z,21.87
2022-12-20T18:02:19.495Z,22.13
2022-12-20T18:04:47.461Z,23.20
2022-12-20T18:07:15.003Z,23.23
2022-12-20T18:09:42.477Z,21.95
2022-12-20T18:12:10.851Z,23.83
2022-12-20T18:14:38.293Z,23.02
2022-12-20T18:17:05.710Z,25.08
2022-12-20T18:19:33.457Z,24.17
2022-12-20T18:22:01.541Z,23.10
2022-12-20T18:24:28.963Z,23.45
2022-12-20T18:26:56.676Z,25.25
2022-12-20T18:29:24.027Z,22.85
2022-12-20T18:31:51.393Z,23.73
2022-12-20T18:34:19.068Z,28.25
2022-12-20T18:36:46.518Z,28.20
2022-12-20T18:39:13.970Z,26.92
2022-12-20T18:41:43.050Z,25.83
2022-12-20T18:44:11.650Z,23.58
2022-12-20T18:46:39.496Z,23.92
2022-12-20T18:49:07.213Z,23.12
2022-12-20T18:51:36.781Z,24.70
2022-12-20T18:54:06.026Z,25.42
2022-12-20T18:56:35.908Z,26.30
2022-12-20T18:59:11.448Z,27.45
2022-12-20T19:01:40.730Z,25.70
2022-12-20T19:04:08.867Z,28.30
2022-12-20T19:06:36.935Z,27.77
2022-12-20T19:09:08.020Z,25.02
2022-12-20T19:11:35.606Z,25.35
2022-12-20T19:14:03.563Z,27.27
2022-12-20T19:16:32.812Z,26.70
2022-12-20T19:19:01.915Z,25.77
2022-12-20T19:21:33.882Z,25.85
2022-12-20T19:24:06.849Z,27.60
2022-12-20T19:26:36.399Z,25.70
2022-12-20T19:29:05.140Z,24.40
2022-12-20T19:31:34.943Z,25.05
2022-12-20T19:34:05.246Z,25.12
2022-12-20T19:36:44.114Z,24.95
2022-12-20T19:39:14.728Z,25.75
2022-12-20T19:41:42.713Z,25.12
2022-12-20T19:44:10.225Z,25.98
2022-12-20T19:46:38.206Z,23.92
2022-12-20T19:49:06.288Z,25.40
2022-12-20T19:51:33.836Z,24.33
2022-12-20T19:54:01.381Z,25.67
2022-12-20T19:56:31.779Z,24.15
2022-12-20T19:58:59.601Z,24.35
2022-12-20T20:01:28.097Z,22.98
2022-12-20T20:03:58.125Z,23.98
2022-12-20T20:06:26.727Z,24.75
2022-12-20T20:08:57.477Z,22.48
2022-12-20T20:11:25.752Z,22.52
2022-12-20T20:13:53.199Z,22.83
2022-12-20T20:16:22.759Z,23.60
2022-12-20T20:18:51.226Z,22.13
2022-12-20T20:21:22.469Z,21.55
2022-12-20T20:23:51.357Z,22.77
2022-12-20T20:26:22.549Z,23.62
2022-12-20T20:28:50.457Z,23.23
2022-12-20T20:31:19.376Z,23.15
2022-12-20T20:33:47.536Z,23.62
2022-12-20T20:36:17.582Z,25.27
2022-12-20T20:38:45.607Z,24.02
2022-12-20T20:41:14.292Z,26.00
2022-12-20T20:43:42.348Z,25.02
2022-12-20T20:46:12.826Z,26.05
2022-12-20T20:48:40.928Z,29.70
2022-12-20T20:51:08.827Z,37.40
2022-12-20T20:53:36.510Z,32.33
2022-12-20T20:56:05.385Z,28.42
2022-12-20T20:58:33.674Z,28.25
2022-12-20T21:01:03.118Z,27.98
2022-12-20T21:03:31.406Z,25.08
2022-12-20T21:08:46.763Z,26.92
2022-12-20T21:11:14.376Z,25.23
2022-12-20T21:13:41.870Z,25.10
2022-12-20T21:16:12.221Z,25.92
2022-12-20T21:18:39.949Z,23.95
2022-12-20T21:21:09.314Z,25.75
2022-12-20T21:23:37.432Z,26.05
2022-12-20T21:26:05.206Z,25.73
2022-12-20T21:28:32.713Z,26.27
2022-12-20T21:31:01.838Z,23.42
2022-12-20T21:33:29.316Z,25.52
2022-12-20T21:36:00.602Z,25.00
2022-12-20T21:38:28.681Z,23.67
2022-12-20T21:41:08.108Z,24.45
2022-12-20T21:43:35.791Z,25.25
2022-12-20T21:46:03.318Z,24.52
2022-12-20T21:48:31.087Z,23.45
2022-12-20T21:51:02.802Z,22.95
2022-12-20T21:53:30.828Z,23.17
2022-12-20T21:55:59.923Z,22.95
2022-12-20T21:58:29.718Z,24.08
2022-12-20T22:00:57.697Z,23.77
2022-12-20T22:03:26.186Z,24.30
2022-12-20T22:05:55.696Z,24.05
2022-12-20T22:08:24.703Z,24.80
2022-12-20T22:11:02.314Z,24.15
2022-12-20T22:13:35.579Z,22.42
2022-12-20T22:16:10.421Z,23.27
2022-12-20T22:18:38.467Z,23.83
2022-12-20T22:21:07.600Z,22.70
2022-12-20T22:23:35.319Z,23.52
2022-12-20T22:26:04.120Z,23.83
2022-12-20T22:28:31.472Z,23.15
2022-12-20T22:30:59.150Z,22.42
2022-12-20T22:33:26.816Z,23.70
2022-12-20T22:35:54.234Z,24.58
2022-12-20T22:38:21.901Z,22.92
2022-12-20T22:40:49.299Z,23.77
2022-12-20T22:43:16.694Z,22.98
2022-12-20T22:45:44.432Z,24.15
2022-12-20T22:48:11.845Z,22.80
2022-12-20T22:50:39.210Z,23.62
2022-12-20T22:53:06.980Z,23.17
2022-12-20T22:55:34.710Z,23.65
2022-12-20T22:58:02.084Z,24.37
2022-12-20T23:00:29.724Z,22.52
2022-12-20T23:02:57.286Z,23.05
2022-12-20T23:05:24.830Z,23.70
2022-12-20T23:07:52.464Z,22.37
2022-12-20T23:10:38.636Z,22.77
2022-12-20T23:13:24.520Z,22.67
2022-12-20T23:15:51.898Z,22.17
2022-12-20T23:18:19.557Z,22.85
2022-12-20T23:21:11.924Z,23.30
2022-12-20T23:23:39.653Z,22.73
2022-12-20T23:26:16.199Z,21.23
2022-12-20T23:28:44.238Z,21.62
2022-12-20T23:31:11.686Z,22.20
2022-12-20T23:33:39.296Z,20.50
2022-12-20T23:36:07.439Z,22.17
2022-12-20T23:38:36.315Z,21.12
2022-12-20T23:41:11.334Z,20.77
2022-12-20T23:43:39.536Z,21.70
2022-12-20T23:46:11.844Z,20.23
2022-12-20T23:48:39.947Z,20.58
2022-12-20T23:51:07.607Z,21.08
2022-12-20T23:53:35.087Z,22.05
2022-12-20T23:56:10.403Z,22.17
2022-12-20T23:58:38.301Z,20.73
